NCAR-RAP Real-Time Weather Data

Output produced by METARs form (14 October 2019  23:43 UTC)
found at http://weather.rap.ucar.edu/surface/
 
KORF 142251Z 00000KT 10SM CLR 19/17 A3002 RMK AO2 SLP164 T01940167
KORF 142151Z 08004KT 10SM CLR 21/17 A3001 RMK AO2 SLP160 T02060172
KORF 142051Z 03005KT 10SM CLR 21/17 A2999 RMK AO2 SLP156 T02110172 56007
KORF 141951Z 05007KT 10SM FEW031 22/17 A3000 RMK AO2 SLP157 T02170172
KORF 141851Z 02008KT 10SM CLR 23/18 A2999 RMK AO2 SLP156 T02280178
KORF 141751Z 02008KT 10SM FEW011 SCT027 BKN035 22/18 A3001 RMK AO2 SLP163 T02170178 10222 20206 58011
KORF 141651Z 35007KT 10SM FEW011 BKN029 OVC034 21/18 A3003 RMK AO2 SLP169 T02110178
KORF 141551Z 36008KT 10SM SCT009 BKN015 OVC039 21/18 A3003 RMK AO2 SLP170 T02110183
KORF 141505Z 36008KT 10SM BKN005 OVC012 21/18 A3005 RMK AO2 T02060183
KORF 141451Z 35006KT 10SM SCT007 BKN012 OVC031 21/18 A3005 RMK AO2 SLP174 T02110183 53009
KORF 141403Z VRB03KT 10SM SCT010 SCT015 BKN024 22/19 A3004 RMK AO2 T02170189
KORF 141351Z 25005KT 10SM FEW011 22/19 A3004 RMK AO2 SLP172 T02220194
KORF 141336Z 28003KT 10SM FEW010 SCT024 SCT033 21/19 A3004 RMK AO2 T02110189
KORF 141325Z 25006KT 10SM SCT009 BKN019 BKN027 21/19 A3003 RMK AO2 T02110189
KORF 141315Z 24007KT 10SM BKN010 BKN015 OVC025 22/19 A3003 RMK AO2 T02170194
KORF 141303Z 23004KT 10SM BKN008 OVC013 21/19 A3003 RMK AO2 T02110194
KORF 141251Z 24004KT 10SM SCT008 OVC012 21/19 A3002 RMK AO2 SLP165 T02110194
KORF 141246Z 23005KT 10SM SCT008 BKN012 OVC024 21/19 A3002 RMK AO2
KORF 141151Z 25004KT 10SM FEW008 BKN015 BKN045 21/19 A3000 RMK AO2 RAB1052E02 SLP159 P0000 60000 70022 T02110194 10211 20206 51022
KORF 141129Z 25004KT 10SM SCT008 BKN013 OVC020 21/19 A2999 RMK AO2 RAB1052E02 P0000 T02110194
KORF 141100Z 24006KT 10SM -RA SCT009 BKN018 OVC039 21/19 A2999 RMK AO2 RAB1052 P0000 T02110194
KORF 141051Z 24007KT 10SM SCT005 BKN010 OVC021 21/19 A2999 RMK AO2 SLP154 T02110194
KORF 140951Z 21007KT 10SM OVC006 21/19 A2997 RMK AO2 SLP148 T02110194
KORF 140851Z 20005KT 10SM OVC009 21/19 A2994 RMK AO2 SLP137 T02060194 56012
KORF 140751Z 22008KT 10SM OVC013 21/19 A2994 RMK AO2 SLP139 T02060189
KORF 140721Z 22007KT 10SM BKN016 OVC050 21/19 A2994 RMK AO2 T02060189
KORF 140651Z 23007KT 10SM FEW055 21/18 A2996 RMK AO2 SLP145 T02060183
KORF 140604Z 21009KT 10SM FEW012 SCT017 BKN100 21/19 A2996 RMK AO2 T02060189
KORF 140551Z 23007KT 10SM BKN014 OVC100 21/19 A2997 RMK AO2 RAE25 SLP148 P0002 60021 T02060189 10217 20194 55012
KORF 140535Z 25007KT 10SM FEW009 BKN013 OVC110 21/19 A2997 RMK AO2 RAE25 P0002 T02060189
KORF 140508Z 22008KT 9SM RA BKN010 BKN015 OVC110 21/19 A2997 RMK AO2 P0001 T02060189
KORF 140451Z 21006KT 10SM -RA FEW055 OVC110 21/19 A2997 RMK AO2 RAB09 SLP147 P0002 T02060189 402780167
KORF 140351Z 18005KT 10SM FEW042 BKN060 BKN075 19/18 A3000 RMK AO2 SLP157 T01940183
KORF 140251Z 18005KT 10SM FEW035 BKN070 OVC110 19/18 A3001 RMK AO2 RAB05E39 SLP161 P0000 60017 T01940183 57010
KORF 140151Z 17005KT 10SM BKN110 20/18 A3001 RMK AO2 RAE49 SLP163 P0004 T02000178
KORF 140051Z 19003KT 6SM RA BR OVC095 20/18 A3003 RMK AO2 SLP168 P0013 T02000183
KORF 132351Z 22016G21KT 5SM RA FEW029 BKN060 OVC080 22/18 A3004 RMK AO2 RAB33 SLP171 P0001 60001 T02170183 10278 20217 53015
KORF 132251Z 25004KT 10SM OVC110 23/17 A2999 RMK AO2 SLP155 T02330172
KORF 132151Z 24006KT 10SM CLR 24/17 A3000 RMK AO2 SLP157 T02390172
KORF 132051Z 24009KT 10SM FEW048 SCT070 BKN095 25/16 A2999 RMK AO2 RAE04B40E49 SLP156 P0000 60000 T02500161 55006
KORF 131951Z 23007KT 10SM -RA SCT100 BKN120 25/17 A2999 RMK AO2 RAB44 SLP155 P0000 T02500167
KORF 131851Z 19010KT 10SM FEW085 27/16 A2999 RMK AO2 SLP156 T02670156
KORF 131751Z 23012KT 10SM FEW090 SCT120 27/16 A3001 RMK AO2 SLP162 T02670156 10272 20211 58018
KORF 131651Z 02005KT 10SM SCT095 SCT120 25/18 A3004 RMK AO2 SLP171 T02500183
KORF 131551Z 03010KT 10SM CLR 24/19 A3005 RMK AO2 SLP174 T02440189
KORF 131508Z 05007KT 10SM SCT015 23/19 A3006 RMK AO2 T02330189
KORF 131451Z 04008KT 10SM BKN013 23/19 A3006 RMK AO2 SLP180 T02330189 50003
KORF 131351Z 08005KT 10SM OVC012 22/19 A3007 RMK AO2 SLP180 T02220189
KORF 131258Z 09005KT 10SM OVC007 21/19 A3007 RMK AO2 T02110189
KORF 131251Z 07005KT 10SM SCT009 21/19 A3007 RMK AO2 SLP181 T02110189
KORF 131207Z 07006KT 10SM SCT009 21/19 A3006 RMK AO2 T02060189
KORF 131151Z 08007KT 10SM OVC009 21/19 A3006 RMK AO2 SLP177 T02060189 10206 20167 51014
KORF 131051Z 00000KT 10SM BKN007 OVC012 18/16 A3005 RMK AO2 SLP175 T01780161
KORF 131047Z 00000KT 10SM BKN007 BKN012 18/16 A3005 RMK AO2
KORF 131025Z 00000KT 10SM BKN012 BKN120 18/16 A3004 RMK AO2 T01780161
KORF 130951Z 00000KT 10SM BKN120 18/16 A3003 RMK AO2 SLP169 T01780161
KORF 130851Z 00000KT 10SM CLR 18/16 A3002 RMK AO2 SLP163 T01780156 53003
KORF 130751Z 00000KT 10SM CLR 17/16 A3000 RMK AO2 SLP159 T01720156
KORF 130651Z 00000KT 10SM CLR 18/15 A3000 RMK AO2 SLP159 T01780150
KORF 130551Z 16004KT 10SM CLR 19/15 A3001 RMK AO2 SLP161 T01890150 10200 20189 56003
KORF 130451Z 00000KT 10SM BKN070 BKN120 19/16 A3001 RMK AO2 SLP162 T01940156 402440122
KORF 130351Z 00000KT 10SM FEW120 19/16 A3001 RMK AO2 SLP162 T01890156
KORF 130251Z 14004KT 10SM FEW095 BKN120 19/16 A3002 RMK AO2 SLP163 T01890156 50009
KORF 130151Z 00000KT 10SM SCT070 19/15 A3002 RMK AO2 SLP164 T01940150
KORF 130051Z 00000KT 10SM BKN080 19/14 A3001 RMK AO2 SLP160 T01940144
KORF 122351Z 00000KT 10SM CLR 19/14 A2999 RMK AO2 SLP154 T01940144 10244 20194 53011